Iliamna, Alaska
Current Conditions -  °F | °C
As of 7:53 AM on Thursday 27 Nov 2014 (Local Time) from PAIL Reporting Station
Clear Clear  
Wind Chill: 18°   Ceiling: Unl
Heat Index: 26°   Visibility: 10mi
Dew Point: 24°   Wind: 8mph
Humidity: 92%   Direction: 360°N
Pressure: 30.2"   Gusts: NA
Location:  59.76°N, 154.83°W
Report Text: PAIL 271653Z 36007KT 10SM CLR M03/M04 A3020 RMK AO2 SLP230 T10331044
Loading
Personal Weather Stations






























Interactive Weather Map New forecast layout! Learn more

10-Day Weather Forecast

Advertisements
Track Severe Weather on mobile